Time;durP1;ratioP1;P1;durP2;ratioP2;P2;SDS_P1;SDS_P2;PMS_P1;PMS_P2;Temp;Humidity;BMP_temperature;BMP_pressure;BME280_temperature;BME280_humidity;BME280_pressure;Samples;Min_cycle;Max_cycle;Signal;HPM_P1;HPM_P2
2022/11/19 00:01:35;;;;;;;26.75;13.55;;;;;;;5.05;100.00;100892.44;2614050;36;20431;-53
2022/11/19 00:04:03;;;;;;;26.92;13.77;;;;;;;4.80;100.00;100886.03;2612660;31;20563;-55
2022/11/19 00:06:31;;;;;;;27.50;13.30;;;;;;;4.96;100.00;100893.03;2612212;36;20041;-54
2022/11/19 00:09:04;;;;;;;28.52;13.88;;;;;;;4.74;100.00;100902.41;2612584;36;20039;-55
2022/11/19 00:14:18;;;;;;;28.98;14.25;;;;;;;4.93;100.00;100911.91;2612321;36;20038;-54
2022/11/19 00:16:46;;;;;;;28.25;13.60;;;;;;;4.94;100.00;100903.81;2612328;36;20532;-56
2022/11/19 00:19:15;;;;;;;27.83;14.93;;;;;;;4.88;100.00;100905.06;2614958;36;20030;-56
2022/11/19 00:21:43;;;;;;;30.57;15.23;;;;;;;4.86;100.00;100906.97;2616528;31;20574;-53
2022/11/19 00:24:14;;;;;;;26.63;13.82;;;;;;;5.15;100.00;100917.56;2614858;36;22501;-59
2022/11/19 00:26:42;;;;;;;28.48;14.73;;;;;;;4.88;100.00;100918.41;2613730;36;20037;-55
2022/11/19 00:29:12;;;;;;;31.17;15.13;;;;;;;4.65;100.00;100908.34;2612071;31;20037;-53
2022/11/19 00:31:40;;;;;;;30.08;15.82;;;;;;;4.90;100.00;100921.84;2613053;36;20049;-57
2022/11/19 00:34:09;;;;;;;26.67;13.60;;;;;;;5.02;100.00;100917.53;2615142;31;20034;-58
2022/11/19 00:36:37;;;;;;;26.45;13.45;;;;;;;4.93;100.00;100917.25;2614574;36;20042;-57
2022/11/19 00:39:06;;;;;;;27.58;14.90;;;;;;;5.00;100.00;100914.09;2615710;36;20030;-55
2022/11/19 00:41:36;;;;;;;32.33;15.93;;;;;;;5.19;100.00;100923.56;2614485;31;20030;-56
2022/11/19 00:44:05;;;;;;;29.05;14.18;;;;;;;5.10;100.00;100922.34;2614544;31;20396;-53
2022/11/19 00:46:33;;;;;;;27.48;14.07;;;;;;;4.99;100.00;100920.41;2614054;36;20035;-54
2022/11/19 00:49:02;;;;;;;25.48;13.18;;;;;;;5.03;100.00;100926.38;2614470;36;20030;-54
2022/11/19 00:51:31;;;;;;;29.95;15.77;;;;;;;4.89;100.00;100922.78;2617185;36;20034;-52
2022/11/19 00:54:00;;;;;;;28.50;15.15;;;;;;;4.53;100.00;100929.50;2614237;36;20050;-53
2022/11/19 00:56:29;;;;;;;32.08;15.65;;;;;;;4.57;100.00;100935.47;2613506;36;20073;-54
2022/11/19 00:59:00;;;;;;;28.92;14.77;;;;;;;4.50;100.00;100952.81;2614074;36;20583;-56
2022/11/19 01:01:28;;;;;;;30.13;14.93;;;;;;;4.82;100.00;100948.13;2612130;36;20049;-54
2022/11/19 01:03:56;;;;;;;27.00;13.68;;;;;;;4.60;100.00;100945.09;2615141;36;20073;-54
2022/11/19 01:06:27;;;;;;;32.40;15.73;;;;;;;4.70;100.00;100954.25;2611473;36;20963;-55
2022/11/19 01:08:56;;;;;;;25.88;13.70;;;;;;;4.84;100.00;100959.53;2611603;36;20296;-54
2022/11/19 01:11:26;;;;;;;31.55;15.80;;;;;;;4.81;100.00;100953.56;2610770;36;20034;-56
2022/11/19 01:13:57;;;;;;;28.60;14.48;;;;;;;4.66;100.00;100958.91;2613372;36;20435;-56
2022/11/19 01:16:30;;;;;;;29.73;15.00;;;;;;;4.81;100.00;100965.06;2611239;36;20030;-55
2022/11/19 01:18:59;;;;;;;29.52;15.35;;;;;;;4.59;100.00;100967.38;2613578;36;20038;-57
2022/11/19 01:21:29;;;;;;;30.10;15.68;;;;;;;4.61;100.00;100966.34;2612453;36;20042;-58
2022/11/19 01:23:58;;;;;;;29.38;16.30;;;;;;;4.54;100.00;100973.00;2614800;36;20034;-54
2022/11/19 01:26:27;;;;;;;30.17;15.60;;;;;;;4.46;100.00;100973.47;2612803;36;20059;-55
2022/11/19 01:28:56;;;;;;;30.88;16.13;;;;;;;4.38;100.00;100965.91;2613923;36;20049;-53
2022/11/19 01:31:28;;;;;;;31.63;16.03;;;;;;;4.71;100.00;100980.81;2614527;36;20023;-53
2022/11/19 01:33:58;;;;;;;34.28;15.73;;;;;;;4.43;100.00;100978.13;2615329;31;20816;-55
2022/11/19 01:36:27;;;;;;;32.10;16.83;;;;;;;4.46;100.00;100977.91;2613808;36;20030;-53
2022/11/19 01:38:56;;;;;;;30.60;16.00;;;;;;;4.62;100.00;100984.03;2614435;36;20150;-55
2022/11/19 01:41:27;;;;;;;30.33;16.00;;;;;;;4.51;100.00;100982.03;2613929;36;20042;-54
2022/11/19 01:43:58;;;;;;;34.53;17.85;;;;;;;4.26;100.00;100981.81;2614602;36;20039;-54
2022/11/19 01:46:30;;;;;;;34.92;16.73;;;;;;;4.49;100.00;100985.72;2613461;36;20038;-54
2022/11/19 01:49:04;;;;;;;32.63;16.92;;;;;;;4.48;100.00;100984.03;2615739;31;20035;-53
2022/11/19 01:51:35;;;;;;;37.35;18.33;;;;;;;4.18;100.00;100992.91;2614627;36;20590;-52
2022/11/19 01:54:07;;;;;;;37.75;17.80;;;;;;;4.32;100.00;100984.09;2613479;36;20559;-55
2022/11/19 01:56:36;;;;;;;36.85;17.85;;;;;;;4.16;100.00;100986.81;2613541;31;20046;-56
2022/11/19 01:59:09;;;;;;;33.65;17.85;;;;;;;4.14;100.00;100989.59;2614118;36;20038;-54
2022/11/19 02:01:40;;;;;;;35.53;18.83;;;;;;;3.98;100.00;100999.44;2613142;36;20579;-57
2022/11/19 02:04:09;;;;;;;34.83;18.13;;;;;;;4.10;100.00;101004.03;2614274;31;20038;-57
2022/11/19 02:06:38;;;;;;;34.22;16.75;;;;;;;4.15;100.00;101003.75;2615664;36;20447;-54
2022/11/19 02:09:06;;;;;;;37.17;18.42;;;;;;;4.29;100.00;101002.94;2616237;36;20030;-53
2022/11/19 02:12:00;;;;;;;33.80;17.53;;;;;;;4.24;100.00;101007.69;2614795;36;20041;-53
2022/11/19 02:14:55;;;;;;;33.10;17.48;;;;;;;4.06;100.00;101010.47;2616259;31;20038;-50
2022/11/19 02:17:41;;;;;;;32.63;17.08;;;;;;;4.18;100.00;101012.44;2615292;36;20073;-53
2022/11/19 02:20:34;;;;;;;34.20;17.33;;;;;;;4.12;100.00;101028.78;2616371;36;20062;-55
2022/11/19 02:23:31;;;;;;;31.50;15.80;;;;;;;4.30;100.00;101016.16;2616968;36;20569;-57
2022/11/19 02:26:38;;;;;;;28.88;15.55;;;;;;;4.16;100.00;101014.31;2615684;36;20069;-57
2022/11/19 02:29:15;;;;;;;30.70;16.70;;;;;;;4.20;100.00;101015.84;2614896;36;20051;-59
2022/11/19 02:31:53;;;;;;;32.08;15.40;;;;;;;4.09;100.00;101012.97;2616015;31;20073;-54
2022/11/19 02:34:30;;;;;;;28.25;15.55;;;;;;;3.95;100.00;101026.25;2615924;31;20034;-53
2022/11/19 02:37:02;;;;;;;30.55;15.90;;;;;;;4.13;100.00;101019.81;2615697;36;20042;-54
2022/11/19 02:39:38;;;;;;;25.88;14.57;;;;;;;3.91;100.00;101019.38;2614802;36;20030;-53
2022/11/19 02:42:14;;;;;;;27.92;14.35;;;;;;;4.09;100.00;101022.75;2614709;36;20034;-56
2022/11/19 02:45:01;;;;;;;27.10;14.68;;;;;;;3.87;100.00;101018.69;2615013;36;20408;-52
2022/11/19 02:47:36;;;;;;;29.52;15.30;;;;;;;4.33;100.00;101025.81;2614785;31;20061;-60
2022/11/19 02:50:12;;;;;;;25.75;15.13;;;;;;;4.19;100.00;101019.47;2613821;36;20023;-57
2022/11/19 02:52:41;;;;;;;28.75;15.05;;;;;;;3.75;100.00;101025.56;2615599;36;20045;-53
2022/11/19 02:55:13;;;;;;;26.92;15.00;;;;;;;4.01;100.00;101031.22;2617014;36;20424;-53
2022/11/19 02:57:49;;;;;;;24.48;13.50;;;;;;;4.06;100.00;101029.13;2617157;39;20405;-51
2022/11/19 03:05:53;;;;;;;23.50;12.93;;;;;;;4.01;100.00;101031.22;2616338;36;20038;-55
2022/11/19 03:08:22;;;;;;;25.70;13.68;;;;;;;4.00;100.00;101029.50;2615708;31;20065;-54
2022/11/19 03:11:01;;;;;;;26.70;14.88;;;;;;;3.73;100.00;101027.47;2613823;36;20034;-51
2022/11/19 03:19:21;;;;;;;26.20;13.45;;;;;;;4.15;100.00;101025.94;2613916;36;20134;-56
2022/11/19 03:21:56;;;;;;;25.75;13.75;;;;;;;3.99;100.00;101027.75;2615982;36;20022;-53
2022/11/19 03:24:29;;;;;;;25.83;13.25;;;;;;;3.89;100.00;101037.22;2614725;36;20050;-56
2022/11/19 03:27:02;;;;;;;23.77;13.50;;;;;;;4.21;100.00;101038.88;2614111;36;20035;-56
2022/11/19 03:29:35;;;;;;;26.23;13.40;;;;;;;3.95;100.00;101045.75;2614420;36;20035;-59
2022/11/19 03:32:07;;;;;;;23.75;12.82;;;;;;;4.00;100.00;101040.13;2614725;36;20045;-56
2022/11/19 03:34:40;;;;;;;25.27;13.32;;;;;;;3.99;100.00;101038.41;2615192;36;20019;-53
2022/11/19 03:37:11;;;;;;;29.40;13.82;;;;;;;4.13;100.00;101041.13;2616003;36;20038;-52
2022/11/19 03:39:41;;;;;;;24.15;12.93;;;;;;;4.01;100.00;101047.19;2615185;36;20031;-58
2022/11/19 03:42:14;;;;;;;27.23;13.90;;;;;;;3.81;100.00;101049.22;2614254;36;20085;-56
2022/11/19 03:44:46;;;;;;;25.80;12.80;;;;;;;3.91;100.00;101056.66;2615429;36;20042;-53
2022/11/19 03:47:20;;;;;;;27.30;13.57;;;;;;;3.60;100.00;101055.75;2615838;36;20034;-56
2022/11/19 03:49:55;;;;;;;24.52;13.50;;;;;;;3.61;100.00;101054.81;2614399;36;20734;-57
2022/11/19 03:52:24;;;;;;;28.73;12.98;;;;;;;3.42;100.00;101054.97;2615624;36;20038;-56
2022/11/19 03:54:52;;;;;;;24.35;12.68;;;;;;;3.70;100.00;101062.25;2615299;36;20038;-52
2022/11/19 03:57:24;;;;;;;27.10;14.43;;;;;;;3.54;100.00;101070.25;2615483;36;20507;-56
2022/11/19 04:00:00;;;;;;;24.70;13.25;;;;;;;3.33;100.00;101066.97;2614207;36;20039;-56
2022/11/19 04:02:28;;;;;;;24.40;13.43;;;;;;;3.34;100.00;101074.00;2614168;36;20029;-57
2022/11/19 04:04:59;;;;;;;26.30;13.68;;;;;;;3.40;100.00;101079.00;2612381;36;20022;-54
2022/11/19 04:07:27;;;;;;;26.73;13.55;;;;;;;3.29;100.00;101078.72;2611709;36;20038;-57
2022/11/19 04:09:56;;;;;;;22.58;12.73;;;;;;;3.52;100.00;101085.44;2612511;36;20042;-57
2022/11/19 04:12:26;;;;;;;22.58;12.57;;;;;;;3.59;100.00;101088.63;2611485;36;20433;-54
2022/11/19 04:14:54;;;;;;;23.35;13.07;;;;;;;3.45;100.00;101097.38;2611983;36;20041;-57
2022/11/19 04:17:23;;;;;;;23.63;12.65;;;;;;;3.34;100.00;101087.31;2616035;36;20844;-58
2022/11/19 04:19:51;;;;;;;30.10;14.07;;;;;;;3.56;100.00;101099.44;2615585;36;20045;-58
2022/11/19 04:22:22;;;;;;;25.23;13.00;;;;;;;3.73;100.00;101095.84;2616640;31;20023;-56
2022/11/19 04:24:50;;;;;;;26.35;14.15;;;;;;;3.57;100.00;101103.81;2615408;36;20042;-56
2022/11/19 04:27:18;;;;;;;28.65;12.93;;;;;;;3.75;100.00;101100.13;2615745;31;20022;-56
2022/11/19 04:29:46;;;;;;;25.08;13.05;;;;;;;3.68;100.00;101104.94;2615864;31;20042;-51
2022/11/19 04:32:15;;;;;;;21.30;11.82;;;;;;;3.44;100.00;101101.81;2614211;31;20034;-57
2022/11/19 04:34:43;;;;;;;25.50;12.90;;;;;;;3.56;100.00;101104.75;2614990;31;20029;-55
2022/11/19 04:37:11;;;;;;;25.40;12.68;;;;;;;3.38;100.00;101118.13;2614841;36;20035;-56
2022/11/19 04:39:42;;;;;;;22.95;12.02;;;;;;;3.11;100.00;101113.34;2616033;31;20058;-57
2022/11/19 04:42:11;;;;;;;23.00;12.10;;;;;;;3.07;100.00;101130.41;2614390;36;20023;-57
2022/11/19 04:44:39;;;;;;;23.55;12.05;;;;;;;3.02;100.00;101132.47;2614914;36;20560;-52
2022/11/19 04:47:07;;;;;;;25.20;13.00;;;;;;;3.17;100.00;101132.59;2615291;36;20089;-55
2022/11/19 04:49:36;;;;;;;24.80;13.00;;;;;;;3.19;100.00;101139.53;2610983;36;20042;-56
2022/11/19 04:52:04;;;;;;;24.85;13.57;;;;;;;2.82;100.00;101140.63;2611678;36;22570;-56
2022/11/19 04:54:32;;;;;;;19.90;11.13;;;;;;;2.91;100.00;101140.13;2612068;36;20539;-54
2022/11/19 04:57:03;;;;;;;19.52;11.15;;;;;;;2.88;100.00;101142.97;2612059;36;21685;-58
2022/11/19 04:59:32;;;;;;;23.05;11.68;;;;;;;3.05;100.00;101132.31;2612629;36;20030;-59
2022/11/19 05:02:00;;;;;;;18.88;10.82;;;;;;;2.93;100.00;101130.28;2611823;36;20041;-57
2022/11/19 05:04:28;;;;;;;24.92;12.38;;;;;;;2.78;100.00;101130.16;2611836;31;20034;-52
2022/11/19 05:06:56;;;;;;;23.15;11.65;;;;;;;2.92;100.00;101125.91;2611195;36;20034;-56
2022/11/19 05:09:25;;;;;;;23.05;12.10;;;;;;;3.09;100.00;101120.56;2612228;36;21352;-54
2022/11/19 05:11:53;;;;;;;23.48;12.68;;;;;;;3.12;100.00;101133.69;2612588;31;20030;-54
2022/11/19 05:14:27;;;;;;;24.45;11.90;;;;;;;2.68;100.00;101142.19;2613402;36;20035;-55
2022/11/19 05:16:55;;;;;;;22.60;11.75;;;;;;;2.82;100.00;101135.31;2610953;36;20065;-55
2022/11/19 05:19:23;;;;;;;21.75;11.45;;;;;;;2.77;100.00;101147.03;2611380;36;20031;-51
2022/11/19 05:21:52;;;;;;;21.75;11.32;;;;;;;3.01;100.00;101140.53;2613488;36;20039;-55
2022/11/19 05:24:20;;;;;;;23.67;11.90;;;;;;;2.78;100.00;101151.41;2613778;36;20038;-53
2022/11/19 05:26:48;;;;;;;26.13;13.02;;;;;;;2.73;100.00;101148.13;2612918;36;20030;-53
2022/11/19 05:29:16;;;;;;;22.35;10.77;;;;;;;2.68;100.00;101150.16;2611144;36;22596;-53
2022/11/19 05:31:47;;;;;;;22.40;11.00;;;;;;;2.82;100.00;101160.09;2611946;36;20569;-55
2022/11/19 05:34:16;;;;;;;24.73;11.77;;;;;;;3.03;100.00;101171.41;2610855;31;20035;-56
2022/11/19 05:36:44;;;;;;;23.13;11.90;;;;;;;2.57;100.00;101176.41;2613178;31;20036;-60
2022/11/19 05:39:12;;;;;;;24.40;11.88;;;;;;;2.59;100.00;101172.75;2615452;36;20027;-50
2022/11/19 05:41:41;;;;;;;23.85;11.63;;;;;;;2.68;100.00;101182.06;2615790;36;20042;-56
2022/11/19 05:44:09;;;;;;;22.08;10.07;;;;;;;2.32;100.00;101174.13;2615528;36;20029;-54
2022/11/19 05:46:37;;;;;;;22.77;11.30;;;;;;;2.35;100.00;101173.97;2614817;36;20035;-58
2022/11/19 05:49:08;;;;;;;19.80;11.50;;;;;;;2.80;100.00;101180.56;2615347;36;20061;-57
2022/11/19 05:51:37;;;;;;;21.58;11.20;;;;;;;2.68;100.00;101182.06;2616142;36;20062;-55
2022/11/19 05:54:05;;;;;;;24.15;11.93;;;;;;;2.57;100.00;101181.72;2615266;31;20061;-55
2022/11/19 05:56:33;;;;;;;25.23;13.15;;;;;;;2.51;100.00;101185.53;2614840;36;20030;-51
2022/11/19 05:59:02;;;;;;;21.27;11.45;;;;;;;2.42;100.00;101173.56;2615230;36;20042;-59
2022/11/19 06:01:31;;;;;;;22.92;13.07;;;;;;;2.37;100.00;101183.59;2614846;36;20038;-55
2022/11/19 06:04:00;;;;;;;21.10;11.57;;;;;;;2.42;100.00;101192.16;2615702;36;20022;-55
2022/11/19 06:06:31;;;;;;;21.83;11.20;;;;;;;2.16;100.00;101179.31;2614969;31;20065;-51
2022/11/19 06:08:59;;;;;;;24.30;12.30;;;;;;;2.43;100.00;101183.28;2615261;36;20574;-54
2022/11/19 06:14:08;;;;;;;23.40;10.55;;;;;;;2.11;100.00;101187.50;2615910;36;20403;-52
2022/11/19 06:16:36;;;;;;;26.23;12.10;;;;;;;2.11;100.00;101187.50;2615310;36;20030;-54
2022/11/19 06:19:04;;;;;;;23.42;11.68;;;;;;;2.07;100.00;101186.78;2615882;36;20030;-56
2022/11/19 06:21:35;;;;;;;21.75;11.07;;;;;;;1.99;100.00;101193.38;2615879;31;20023;-52
2022/11/19 06:24:04;;;;;;;21.33;11.68;;;;;;;1.72;100.00;101197.28;2615779;36;20038;-61
2022/11/19 06:26:32;;;;;;;20.65;11.02;;;;;;;2.12;100.00;101198.97;2615697;36;20038;-55
2022/11/19 06:29:00;;;;;;;22.00;11.30;;;;;;;2.19;100.00;101200.41;2616380;31;20023;-55
2022/11/19 06:31:29;;;;;;;24.30;10.93;;;;;;;2.27;100.00;101211.53;2613572;36;20023;-53
2022/11/19 06:33:57;;;;;;;26.00;13.20;;;;;;;1.86;100.00;101211.69;2615891;36;20037;-55
2022/11/19 06:36:26;;;;;;;22.02;12.35;;;;;;;1.92;100.00;101220.22;2615268;36;20042;-54
2022/11/19 06:38:57;;;;;;;20.88;11.48;;;;;;;1.83;100.00;101220.66;2615421;36;20570;-54
2022/11/19 06:41:28;;;;;;;22.23;11.23;;;;;;;1.83;100.00;101222.47;2615337;36;20053;-54
2022/11/19 06:43:56;;;;;;;23.52;12.93;;;;;;;1.79;100.00;101227.03;2616319;36;20035;-54
2022/11/19 06:46:24;;;;;;;22.60;11.25;;;;;;;1.82;100.00;101234.00;2615156;36;20555;-50
2022/11/19 06:48:53;;;;;;;37.47;19.27;;;;;;;1.46;100.00;101237.38;2615439;36;20023;-57
2022/11/19 06:51:21;;;;;;;26.73;13.95;;;;;;;1.32;100.00;101241.50;2615339;36;20046;-54
2022/11/19 06:53:49;;;;;;;27.45;14.38;;;;;;;1.26;100.00;101252.38;2614795;36;20026;-55
2022/11/19 06:56:20;;;;;;;25.58;12.82;;;;;;;1.17;100.00;101245.69;2614462;36;20100;-52
2022/11/19 06:58:49;;;;;;;21.50;12.20;;;;;;;1.34;100.00;101249.38;2615898;36;20590;-55
2022/11/19 07:01:17;;;;;;;25.90;13.25;;;;;;;1.36;100.00;101243.09;2610668;36;20033;-57
2022/11/19 07:03:45;;;;;;;26.05;13.38;;;;;;;1.34;100.00;101250.25;2611079;36;20046;-54
2022/11/19 07:06:13;;;;;;;23.80;11.63;;;;;;;1.36;100.00;101258.16;2611304;31;20602;-56
2022/11/19 07:08:42;;;;;;;26.90;13.45;;;;;;;1.34;100.00;101263.53;2612512;36;20540;-56
2022/11/19 07:13:59;;;;;;;24.63;13.52;;;;;;;1.23;100.00;101268.41;2614779;36;20035;-54
2022/11/19 07:16:29;;;;;;;28.02;13.63;;;;;;;1.24;100.00;101275.47;2614492;36;20030;-55
2022/11/19 07:18:59;;;;;;;25.00;12.07;;;;;;;1.27;100.00;101280.63;2611952;36;20034;-56
2022/11/19 07:21:27;;;;;;;;;;;;;;;1.24;100.00;101280.75;2613088;36;20039;-58
2022/11/19 07:23:56;;;;;;;23.48;12.75;;;;;;;1.00;100.00;101282.63;2613006;36;19946;-56
2022/11/19 07:26:24;;;;;;;25.35;13.02;;;;;;;0.81;100.00;101290.50;2612356;36;20042;-57
2022/11/19 07:28:53;;;;;;;25.38;12.52;;;;;;;0.80;100.00;101286.13;2612518;36;20034;-53
2022/11/19 07:31:24;;;;;;;25.63;13.95;;;;;;;0.79;100.00;101285.25;2613798;31;20428;-53
2022/11/19 07:33:53;;;;;;;26.15;12.75;;;;;;;0.61;100.00;101294.81;2615340;36;21023;-55
2022/11/19 07:36:21;;;;;;;26.75;13.20;;;;;;;0.74;100.00;101286.34;2614788;36;20412;-58
2022/11/19 07:38:51;;;;;;;25.37;13.30;;;;;;;0.72;100.00;101293.53;2614269;36;20034;-53
2022/11/19 07:43:59;;;;;;;33.35;17.02;;;;;;;0.94;100.00;101294.34;2615120;36;19986;-57
2022/11/19 07:46:30;;;;;;;29.65;15.98;;;;;;;0.78;100.00;101298.56;2615101;36;20038;-54
2022/11/19 07:49:00;;;;;;;29.25;14.20;;;;;;;0.62;100.00;101304.50;2616045;36;20022;-55
2022/11/19 07:51:28;;;;;;;24.67;12.98;;;;;;;0.49;100.00;101297.97;2615296;36;20544;-53
2022/11/19 07:53:57;;;;;;;25.50;12.83;;;;;;;0.62;100.00;101301.84;2613999;36;20038;-52
2022/11/19 07:56:26;;;;;;;26.25;13.27;;;;;;;0.48;100.00;101309.47;2612679;36;20034;-50
2022/11/19 07:58:54;;;;;;;28.30;12.40;;;;;;;0.46;100.00;101304.25;2615417;36;20154;-57
2022/11/19 08:01:25;;;;;;;23.38;12.15;;;;;;;0.77;100.00;101315.41;2613971;36;20042;-55
2022/11/19 08:03:56;;;;;;;24.77;12.23;;;;;;;0.49;100.00;101313.84;2613811;36;20023;-59
2022/11/19 08:06:27;;;;;;;25.35;12.43;;;;;;;0.55;100.00;101313.59;2614079;36;20578;-51
2022/11/19 08:08:56;;;;;;;27.30;12.50;;;;;;;0.61;100.00;101323.94;2613988;36;20030;-53
2022/11/19 08:11:25;;;;;;;25.45;12.30;;;;;;;0.62;100.00;101325.69;2612541;36;20058;-54
2022/11/19 08:13:53;;;;;;;22.35;11.15;;;;;;;0.62;100.00;101325.69;2608577;36;20042;-54
2022/11/19 08:19:09;;;;;;;22.55;11.02;;;;;;;0.82;100.00;101331.97;2615805;36;20058;-53
2022/11/19 08:21:38;;;;;;;26.23;12.80;;;;;;;0.76;100.00;101334.88;2614914;36;20078;-52
2022/11/19 08:24:07;;;;;;;21.90;11.15;;;;;;;0.94;100.00;101342.06;2616462;31;20034;-51
2022/11/19 08:26:36;;;;;;;22.13;11.18;;;;;;;0.91;100.00;101346.63;2613869;31;20122;-54
2022/11/19 08:29:04;;;;;;;22.00;10.73;;;;;;;0.83;100.00;101342.50;2616010;31;20019;-52
2022/11/19 08:31:33;;;;;;;20.03;10.90;;;;;;;0.96;100.00;101339.38;2616762;36;20424;-57
2022/11/19 08:34:05;;;;;;;19.63;10.37;;;;;;;0.80;100.00;101339.97;2616364;36;20027;-52
2022/11/19 08:36:33;;;;;;;20.15;10.00;;;;;;;0.74;100.00;101348.19;2614064;36;20334;-56
2022/11/19 08:39:02;;;;;;;20.60;10.63;;;;;;;0.82;100.00;101353.16;2615220;36;20026;-52
2022/11/19 08:44:12;;;;;;;22.25;10.65;;;;;;;0.81;100.00;101346.13;2615808;36;20057;-58
2022/11/19 08:46:41;;;;;;;20.83;10.37;;;;;;;0.69;100.00;101353.66;2615236;36;20039;-54
2022/11/19 08:49:12;;;;;;;15.25;8.57;;;;;;;0.67;100.00;101346.69;2614421;36;20423;-58
2022/11/19 08:51:41;;;;;;;19.08;8.82;;;;;;;0.67;100.00;101344.03;2610899;36;20027;-56
2022/11/19 08:54:09;;;;;;;23.25;10.30;;;;;;;0.87;100.00;101345.91;2611934;36;20034;-56
2022/11/19 08:56:37;;;;;;;20.70;10.00;;;;;;;0.87;100.00;101348.56;2612915;31;20038;-53
2022/11/19 08:59:06;;;;;;;19.83;9.23;;;;;;;0.96;100.00;101358.78;2615257;36;20472;-57
2022/11/19 09:01:34;;;;;;;21.10;10.45;;;;;;;1.14;100.00;101364.25;2615767;36;20057;-51
2022/11/19 09:04:02;;;;;;;20.67;10.70;;;;;;;0.99;100.00;101366.59;2614688;36;20022;-55
2022/11/19 09:06:35;;;;;;;25.23;10.63;;;;;;;1.04;100.00;101369.91;2613484;36;20038;-55
2022/11/19 09:09:03;;;;;;;19.45;10.00;;;;;;;0.99;100.00;101379.88;2615137;36;20069;-51
2022/11/19 09:11:32;;;;;;;36.60;16.10;;;;;;;1.15;100.00;101373.91;2615277;36;20577;-55
2022/11/19 09:14:00;;;;;;;42.50;18.85;;;;;;;1.07;100.00;101374.25;2614668;36;20034;-51
2022/11/19 09:16:29;;;;;;;22.73;10.27;;;;;;;1.06;100.00;101377.84;2612355;36;20531;-56
2022/11/19 09:18:57;;;;;;;18.80;9.27;;;;;;;0.99;100.00;101369.25;2615179;36;20295;-55
2022/11/19 09:21:26;;;;;;;29.23;13.82;;;;;;;1.23;100.00;101375.34;2614881;36;20559;-54
2022/11/19 09:23:56;;;;;;;21.70;10.32;;;;;;;1.13;100.00;101373.13;2613876;36;20037;-55
2022/11/19 09:26:25;;;;;;;19.73;9.85;;;;;;;1.05;100.00;101376.97;2612996;31;20436;-53
2022/11/19 09:28:53;;;;;;;19.88;8.90;;;;;;;1.26;100.00;101382.31;2614303;36;20556;-53
2022/11/19 09:31:22;;;;;;;14.88;8.52;;;;;;;1.48;100.00;101378.78;2615034;36;20057;-50
2022/11/19 09:33:52;;;;;;;17.27;9.40;;;;;;;1.27;100.00;101380.53;2615212;36;20049;-58
2022/11/19 09:36:21;;;;;;;15.50;8.65;;;;;;;1.38;100.00;101383.59;2614423;36;20306;-52
2022/11/19 09:38:50;;;;;;;18.58;9.77;;;;;;;1.31;100.00;101387.41;2612229;36;20571;-55
2022/11/19 09:41:39;;;;;;;16.50;9.35;;;;;;;1.25;100.00;101391.19;2612947;36;20030;-52
2022/11/19 09:44:16;;;;;;;14.93;8.32;;;;;;;1.42;100.00;101392.28;2615482;36;20065;-53
2022/11/19 09:46:53;;;;;;;15.95;8.82;;;;;;;1.42;100.00;101387.84;2615840;31;20041;-58
2022/11/19 09:49:30;;;;;;;16.92;9.35;;;;;;;1.42;100.00;101394.94;2614242;36;20581;-55
2022/11/19 09:52:06;;;;;;;16.42;8.50;;;;;;;1.64;100.00;101406.38;2614679;36;20038;-56
2022/11/19 09:54:35;;;;;;;15.00;8.25;;;;;;;1.55;100.00;101397.00;2633953;36;20565;-52
2022/11/19 09:57:13;;;;;;;15.35;8.40;;;;;;;1.58;100.00;101406.63;2615800;36;20447;-54
2022/11/19 09:59:43;;;;;;;14.65;8.90;;;;;;;1.79;100.00;101404.00;2616089;36;20027;-52
2022/11/19 10:02:18;;;;;;;17.38;8.30;;;;;;;1.77;100.00;101406.72;2616242;31;20034;-54
2022/11/19 10:04:48;;;;;;;16.33;8.73;;;;;;;1.94;100.00;101408.63;2616872;31;20567;-54
2022/11/19 10:07:27;;;;;;;16.30;7.43;;;;;;;1.72;100.00;101403.38;2616661;36;20663;-51
2022/11/19 10:10:05;;;;;;;17.80;8.63;;;;;;;1.91;100.00;101396.38;2615838;36;20026;-53
2022/11/19 10:13:10;;;;;;;12.50;6.68;;;;;;;1.92;100.00;101394.56;2616402;31;20490;-55
2022/11/19 10:15:49;;;;;;;14.05;7.53;;;;;;;1.84;100.00;101402.00;2616201;36;20119;-55
2022/11/19 10:18:24;;;;;;;13.55;7.40;;;;;;;2.01;100.00;101398.63;2616132;31;20034;-55
2022/11/19 10:21:05;;;;;;;11.80;7.03;;;;;;;2.27;100.00;101397.44;2616085;36;20030;-53
2022/11/19 10:23:46;;;;;;;15.52;7.25;;;;;;;2.08;100.00;101400.91;2616278;36;20019;-58
2022/11/19 10:26:17;;;;;;;11.20;6.82;;;;;;;2.19;100.00;101402.22;2615492;36;20134;-54
2022/11/19 10:28:55;;;;;;;12.10;6.45;;;;;;;2.22;100.00;101407.41;2617011;36;20052;-52
2022/11/19 10:31:30;;;;;;;13.15;6.82;;;;;;;2.35;100.00;101402.41;2616060;36;20140;-54
2022/11/19 10:34:07;;;;;;;11.13;5.97;;;;;;;2.45;100.00;101399.25;2615584;36;20041;-58
2022/11/19 10:36:43;;;;;;;13.13;6.43;;;;;;;2.49;100.00;101400.00;2615075;36;20034;-55
2022/11/19 10:39:19;;;;;;;13.27;6.88;;;;;;;2.23;100.00;101410.00;2616109;36;20118;-52
2022/11/19 10:41:53;;;;;;;12.57;6.55;;;;;;;2.42;100.00;101404.72;2615689;36;20085;-59
2022/11/19 10:44:39;;;;;;;10.77;5.85;;;;;;;2.55;100.00;101407.66;2616673;36;20026;-54
2022/11/19 10:47:08;;;;;;;13.48;6.45;;;;;;;2.54;100.00;101408.59;2612172;36;20031;-58
2022/11/19 10:49:41;;;;;;;9.80;6.13;;;;;;;2.53;100.00;101406.00;2615453;36;20809;-52
2022/11/19 10:52:20;;;;;;;10.68;5.78;;;;;;;2.73;100.00;101394.47;2614445;31;20035;-51
2022/11/19 10:54:50;;;;;;;9.40;5.55;;;;;;;2.99;100.00;101398.53;2615277;36;20030;-56
2022/11/19 10:57:21;;;;;;;10.07;5.65;;;;;;;2.88;100.00;101395.53;2615154;36;20039;-54
2022/11/19 10:59:54;;;;;;;10.70;5.38;;;;;;;2.88;100.00;101398.19;2615024;36;20554;-52
2022/11/19 11:02:31;;;;;;;9.35;5.53;;;;;;;2.75;100.00;101401.44;2615182;36;20019;-55
2022/11/19 11:05:08;;;;;;;9.38;4.90;;;;;;;2.92;100.00;101402.44;2614609;36;20543;-55
2022/11/19 11:07:54;;;;;;;8.45;4.70;;;;;;;2.96;100.00;101410.19;2615501;36;20046;-56
2022/11/19 11:10:28;;;;;;;8.75;5.15;;;;;;;2.94;100.00;101395.22;2613293;36;20034;-54
2022/11/19 11:15:50;;;;;;;7.32;4.47;;;;;;;3.12;100.00;101389.03;2614993;36;20045;-54
2022/11/19 11:18:20;;;;;;;9.82;4.97;;;;;;;2.97;100.00;101380.00;2615639;36;20708;-57
2022/11/19 11:20:51;;;;;;;9.20;5.38;;;;;;;3.32;100.00;101385.38;2614658;36;20037;-55
2022/11/19 11:23:22;;;;;;;12.05;4.70;;;;;;;3.36;100.00;101375.44;2615208;36;20034;-59
2022/11/19 11:25:58;;;;;;;7.43;4.65;;;;;;;3.58;100.00;101369.91;2614247;36;20034;-54
2022/11/19 11:28:26;;;;;;;9.77;5.28;;;;;;;3.73;100.00;101373.56;2616156;36;20518;-59
2022/11/19 11:30:59;;;;;;;6.70;4.13;;;;;;;3.41;100.00;101367.22;2615103;36;20023;-55
2022/11/19 11:33:30;;;;;;;9.45;5.30;;;;;;;3.35;100.00;101360.41;2605008;36;20113;-52
2022/11/19 11:36:03;;;;;;;7.47;4.75;;;;;;;3.65;100.00;101362.44;2612741;36;20029;-54
2022/11/19 11:38:32;;;;;;;7.43;3.83;;;;;;;3.66;100.00;101366.84;2611463;36;20041;-53
2022/11/19 11:41:06;;;;;;;6.43;4.50;;;;;;;3.73;97.82;101362.06;2614217;36;20031;-57
2022/11/19 11:43:37;;;;;;;9.25;4.68;;;;;;;3.69;93.78;101356.03;2615412;36;20038;-57
2022/11/19 11:46:11;;;;;;;7.93;4.05;;;;;;;3.74;98.39;101361.09;2616460;31;20030;-56
2022/11/19 11:48:47;;;;;;;7.90;4.72;;;;;;;3.83;100.00;101358.84;2615663;31;20030;-54
2022/11/19 11:51:27;;;;;;;9.70;4.43;;;;;;;3.97;93.52;101351.91;2615924;36;20029;-55
2022/11/19 11:54:18;;;;;;;7.20;4.13;;;;;;;4.18;95.60;101350.78;2616830;36;20428;-52
2022/11/19 11:56:47;;;;;;;8.02;4.45;;;;;;;3.99;89.10;101355.34;2615662;36;20034;-54
2022/11/19 11:59:17;;;;;;;7.82;3.95;;;;;;;3.97;84.16;101354.59;2616639;36;20041;-53
2022/11/19 12:01:54;;;;;;;6.97;3.92;;;;;;;4.04;84.34;101358.66;2616688;36;20611;-53